Time;durP1;ratioP1;P1;durP2;ratioP2;P2;SDS_P1;SDS_P2;PMS_P1;PMS_P2;Temp;Humidity;BMP_temperature;BMP_pressure;BME280_temperature;BME280_humidity;BME280_pressure;Samples;Min_cycle;Max_cycle;Signal;HPM_P1;HPM_P2
2024/01/14 00:00:11;;;;;;;74.13;30.73;;;;;;;1.28;100.00;101553.06;5088653;28;20458;-67
2024/01/14 00:02:39;;;;;;;64.30;29.77;;;;;;;1.39;100.00;101554.69;5088190;28;20035;-67
2024/01/14 00:05:06;;;;;;;71.93;31.90;;;;;;;1.31;100.00;101542.53;5090205;28;20046;-67
2024/01/14 00:07:31;;;;;;;76.90;32.80;;;;;;;1.34;100.00;101545.13;5092858;28;20024;-67
2024/01/14 00:09:58;;;;;;;72.27;32.10;;;;;;;1.28;100.00;101539.97;5093600;28;20145;-67
2024/01/14 00:12:24;;;;;;;84.53;32.87;;;;;;;1.20;100.00;101530.47;5093316;28;20031;-67
2024/01/14 00:14:50;;;;;;;78.43;33.03;;;;;;;1.30;100.00;101530.34;5093140;28;20035;-67
2024/01/14 00:17:15;;;;;;;67.57;29.30;;;;;;;1.31;100.00;101529.44;5093290;28;20390;-67
2024/01/14 00:19:41;;;;;;;51.90;23.87;;;;;;;1.28;100.00;101526.84;5093411;28;20068;-67
2024/01/14 00:22:06;;;;;;;70.57;30.17;;;;;;;1.29;100.00;101527.72;5100037;28;20108;-67
2024/01/14 00:24:31;;;;;;;65.03;27.60;;;;;;;1.28;100.00;101526.84;5092299;28;20031;-67
2024/01/14 00:26:57;;;;;;;69.30;31.73;;;;;;;1.27;100.00;101505.94;5092139;28;20032;-67
2024/01/14 00:29:22;;;;;;;75.33;31.33;;;;;;;1.31;100.00;101520.72;5093262;28;20032;-67
2024/01/14 00:31:47;;;;;;;77.33;30.70;;;;;;;1.21;100.00;101512.13;5093189;28;20445;-68
2024/01/14 00:34:13;;;;;;;49.23;23.67;;;;;;;1.29;100.00;101518.09;5093435;28;20027;-67
2024/01/14 00:36:41;;;;;;;75.07;29.87;;;;;;;1.27;100.00;101514.66;5093165;28;20429;-67
2024/01/14 00:39:07;;;;;;;73.10;28.80;;;;;;;1.31;100.00;101510.22;5093455;28;20038;-67
2024/01/14 00:41:35;;;;;;;68.23;29.63;;;;;;;1.43;100.00;101502.19;5092477;28;20027;-67
2024/01/14 00:44:02;;;;;;;69.50;28.63;;;;;;;1.28;100.00;101505.91;5089713;28;20315;-68
2024/01/14 00:46:27;;;;;;;77.43;31.33;;;;;;;1.25;100.00;101484.13;5096393;28;20020;-68
2024/01/14 00:48:52;;;;;;;72.33;33.43;;;;;;;1.31;100.00;101497.13;5093271;28;20410;-67
2024/01/14 00:51:18;;;;;;;65.60;28.17;;;;;;;1.34;100.00;101491.84;5092165;28;20388;-67
2024/01/14 00:53:43;;;;;;;57.10;25.07;;;;;;;1.35;100.00;101497.06;5091571;28;20043;-67
2024/01/14 00:56:09;;;;;;;72.67;29.47;;;;;;;1.28;100.00;101482.31;5091006;28;20042;-67
2024/01/14 00:58:34;;;;;;;59.60;25.23;;;;;;;1.29;100.00;101483.19;5091768;28;20097;-67
2024/01/14 01:00:59;;;;;;;69.47;30.93;;;;;;;1.36;100.00;101495.31;5092716;28;20047;-68
2024/01/14 01:03:25;;;;;;;74.50;31.47;;;;;;;1.26;100.00;101478.84;5092527;28;20102;-67
2024/01/14 01:05:50;;;;;;;68.80;29.13;;;;;;;1.33;100.00;101492.75;5092434;28;20437;-68
2024/01/14 01:08:16;;;;;;;68.70;29.63;;;;;;;1.34;100.00;101486.59;5092542;28;20440;-67
2024/01/14 01:10:41;;;;;;;66.77;30.30;;;;;;;1.41;100.00;101484.75;5091062;28;20027;-67
2024/01/14 01:13:09;;;;;;;79.80;30.60;;;;;;;1.32;100.00;101473.53;5092208;28;20038;-67
2024/01/14 01:15:37;;;;;;;51.43;23.93;;;;;;;1.38;100.00;101469.06;5092322;28;20064;-68
2024/01/14 01:18:03;;;;;;;55.72;25.98;;;;;;;1.44;100.00;101467.25;5090279;28;20035;-67
2024/01/14 01:20:29;;;;;;;64.80;29.00;;;;;;;1.35;100.00;101444.66;5091807;28;20020;-67
2024/01/14 01:22:57;;;;;;;65.22;28.45;;;;;;;1.35;100.00;101462.13;5092080;28;20042;-67
2024/01/14 01:25:22;;;;;;;65.60;29.03;;;;;;;1.31;100.00;101448.22;5091994;28;20165;-67
2024/01/14 01:27:48;;;;;;;60.80;26.57;;;;;;;1.37;100.00;101468.22;5090561;28;20441;-67
2024/01/14 01:30:14;;;;;;;63.47;28.43;;;;;;;1.38;100.00;101461.22;5090841;28;20015;-67
2024/01/14 01:32:39;;;;;;;66.40;28.60;;;;;;;1.47;100.00;101453.19;5090763;28;20051;-67
2024/01/14 01:35:05;;;;;;;78.40;30.67;;;;;;;1.35;100.00;101456.88;5090649;28;20031;-67
2024/01/14 01:37:30;;;;;;;60.53;26.40;;;;;;;1.43;100.00;101454.16;5090613;28;20353;-67
2024/01/14 01:39:58;;;;;;;71.07;29.53;;;;;;;1.35;100.00;101459.50;5091750;28;20177;-67
2024/01/14 01:42:23;;;;;;;73.97;29.00;;;;;;;1.35;100.00;101452.53;5090534;28;20059;-67
2024/01/14 01:44:49;;;;;;;77.47;31.23;;;;;;;1.32;100.00;101455.19;5091219;28;20125;-67
2024/01/14 01:47:16;;;;;;;74.13;29.60;;;;;;;1.29;100.00;101449.13;5091756;28;20239;-67
2024/01/14 01:49:43;;;;;;;71.60;29.97;;;;;;;1.27;100.00;101449.16;5091220;28;20024;-67
2024/01/14 01:52:12;;;;;;;70.70;30.03;;;;;;;1.25;100.00;101434.34;5090058;28;20031;-68
2024/01/14 01:54:39;;;;;;;75.13;29.43;;;;;;;1.32;100.00;101431.63;5091685;28;20031;-67
2024/01/14 01:57:06;;;;;;;77.93;32.63;;;;;;;1.40;100.00;101451.59;5091107;28;20032;-67
2024/01/14 01:59:32;;;;;;;68.23;26.10;;;;;;;1.41;100.00;101446.31;5091165;28;20073;-67
2024/01/14 02:01:59;;;;;;;60.77;25.73;;;;;;;1.45;100.00;101447.16;5090244;28;20028;-67
2024/01/14 02:04:27;;;;;;;73.63;30.80;;;;;;;1.32;100.00;101442.09;5090071;28;20183;-68
2024/01/14 02:06:56;;;;;;;69.53;28.07;;;;;;;1.32;100.00;101431.63;5091241;28;20135;-68
2024/01/14 02:09:21;;;;;;;78.63;29.57;;;;;;;1.28;100.00;101421.19;5090029;28;20478;-67
2024/01/14 02:11:47;;;;;;;67.87;26.77;;;;;;;1.32;100.00;101426.38;5090935;28;20042;-68
2024/01/14 02:14:12;;;;;;;76.37;32.70;;;;;;;1.38;100.00;101432.38;5089884;28;20038;-68
2024/01/14 02:16:38;;;;;;;64.57;29.83;;;;;;;1.36;100.00;101427.19;5091248;28;20031;-67
2024/01/14 02:19:04;;;;;;;71.07;29.40;;;;;;;1.37;100.00;101434.16;5090837;28;20529;-68
2024/01/14 02:21:44;;;;;;;68.40;29.47;;;;;;;1.37;100.00;101428.91;5088889;28;20028;-67
2024/01/14 02:24:18;;;;;;;70.83;29.80;;;;;;;1.35;100.00;101434.19;5091235;28;20027;-67
2024/01/14 02:26:44;;;;;;;70.83;28.50;;;;;;;1.36;100.00;101432.44;5090300;28;20031;-67
2024/01/14 02:29:11;;;;;;;72.03;29.60;;;;;;;1.30;100.00;101427.28;5089236;28;20526;-67
2024/01/14 02:31:37;;;;;;;64.13;30.13;;;;;;;1.33;100.00;101435.09;5089985;28;20100;-67
2024/01/14 02:34:03;;;;;;;64.97;27.58;;;;;;;1.38;100.00;101422.75;5090508;28;20035;-67
2024/01/14 02:36:29;;;;;;;64.63;28.75;;;;;;;1.31;100.00;101413.28;5089759;28;20039;-67
2024/01/14 02:38:54;;;;;;;70.40;29.83;;;;;;;1.28;100.00;101422.06;5089244;28;20043;-67
2024/01/14 02:41:19;;;;;;;62.10;27.50;;;;;;;1.22;100.00;101414.28;5089242;28;20047;-67
2024/01/14 02:43:45;;;;;;;63.00;29.67;;;;;;;1.30;100.00;101414.19;5089393;28;20024;-67
2024/01/14 02:46:10;;;;;;;79.60;33.23;;;;;;;1.31;100.00;101415.91;5089773;28;20407;-67
2024/01/14 02:48:36;;;;;;;55.60;26.97;;;;;;;1.30;100.00;101411.56;5088812;28;20099;-67
2024/01/14 02:51:02;;;;;;;66.80;28.90;;;;;;;1.18;100.00;101396.00;5090335;28;20044;-67
2024/01/14 02:53:28;;;;;;;79.53;33.10;;;;;;;1.13;100.00;101376.00;5090765;28;20038;-67
2024/01/14 02:55:56;;;;;;;63.67;28.03;;;;;;;1.20;100.00;101384.63;5089900;28;20024;-67
2024/01/14 02:58:22;;;;;;;60.80;26.20;;;;;;;1.25;100.00;101377.56;5090759;28;20016;-67
2024/01/14 03:00:47;;;;;;;74.07;32.50;;;;;;;1.22;100.00;101380.22;5089837;28;20023;-68
2024/01/14 03:03:14;;;;;;;70.23;29.47;;;;;;;1.25;100.00;101376.69;5088716;28;20497;-67
2024/01/14 03:05:39;;;;;;;69.53;30.42;;;;;;;1.14;100.00;101376.84;5089392;28;20394;-67
2024/01/14 03:08:08;;;;;;;68.03;28.87;;;;;;;1.17;100.00;101368.94;5090838;28;20114;-67
2024/01/14 03:10:33;;;;;;;58.57;23.23;;;;;;;1.12;100.00;101361.19;5090420;28;20023;-67
2024/01/14 03:12:58;;;;;;;67.97;29.57;;;;;;;1.16;100.00;101366.38;5090691;28;20043;-67
2024/01/14 03:15:24;;;;;;;58.23;27.27;;;;;;;1.07;100.00;101346.44;5089252;28;20027;-67
2024/01/14 03:17:49;;;;;;;63.53;27.40;;;;;;;1.28;100.00;101350.44;5088637;28;20173;-67
2024/01/14 03:20:15;;;;;;;58.37;25.90;;;;;;;1.00;100.00;101347.41;5088030;28;20459;-67
2024/01/14 03:22:41;;;;;;;48.17;23.60;;;;;;;1.10;100.00;101356.84;5090289;28;20095;-67
2024/01/14 03:25:07;;;;;;;64.70;28.27;;;;;;;1.15;100.00;101334.09;5088397;28;20036;-67
2024/01/14 03:27:32;;;;;;;64.33;26.00;;;;;;;1.02;100.00;101349.09;5090453;28;20111;-67
2024/01/14 03:29:57;;;;;;;68.03;28.30;;;;;;;1.05;100.00;101345.56;5090233;28;20020;-67
2024/01/14 03:32:23;;;;;;;59.60;28.33;;;;;;;0.98;100.00;101328.25;5088363;28;20030;-67
2024/01/14 03:34:48;;;;;;;63.23;28.00;;;;;;;1.00;100.00;101343.03;5088695;28;20038;-67
2024/01/14 03:37:13;;;;;;;55.63;25.47;;;;;;;1.04;100.00;101336.00;5087868;28;20066;-67
2024/01/14 03:39:41;;;;;;;70.10;28.47;;;;;;;0.95;100.00;101331.78;5088832;28;20429;-67
2024/01/14 03:42:09;;;;;;;61.33;27.10;;;;;;;0.88;100.00;101320.53;5091740;28;20024;-67
2024/01/14 03:44:34;;;;;;;64.90;29.13;;;;;;;1.00;100.00;101332.56;5092830;28;20016;-67
2024/01/14 03:46:59;;;;;;;59.37;24.70;;;;;;;1.00;100.00;101340.44;5091870;28;20081;-67
2024/01/14 03:49:27;;;;;;;58.73;25.80;;;;;;;0.88;100.00;101315.31;5092352;28;20016;-67
2024/01/14 03:51:52;;;;;;;61.47;26.37;;;;;;;0.93;100.00;101328.31;5093369;28;20075;-67
2024/01/14 03:54:20;;;;;;;55.87;25.23;;;;;;;0.95;100.00;101317.81;5092723;28;20052;-68
2024/01/14 03:56:46;;;;;;;61.33;26.57;;;;;;;1.00;100.00;101326.44;5091756;28;20047;-68
2024/01/14 03:59:11;;;;;;;53.40;23.17;;;;;;;0.98;100.00;101318.63;5093868;28;20052;-67
2024/01/14 04:01:37;;;;;;;61.43;25.23;;;;;;;0.90;100.00;101302.16;5092071;28;20463;-67
2024/01/14 04:04:02;;;;;;;57.77;25.33;;;;;;;0.98;100.00;101321.25;5092352;28;20356;-67
2024/01/14 04:06:28;;;;;;;52.97;26.13;;;;;;;0.90;100.00;101308.25;5093780;28;20016;-67
2024/01/14 04:08:55;;;;;;;61.80;27.57;;;;;;;0.98;100.00;101318.63;5091832;28;20020;-68
2024/01/14 04:11:21;;;;;;;57.97;26.13;;;;;;;1.00;100.00;101309.00;5091907;28;20059;-67
2024/01/14 04:13:46;;;;;;;50.17;26.20;;;;;;;0.91;100.00;101296.03;5098557;28;20099;-67
2024/01/14 04:16:11;;;;;;;52.60;22.83;;;;;;;1.00;100.00;101298.53;5096058;28;20028;-67
2024/01/14 04:18:37;;;;;;;58.93;25.33;;;;;;;0.95;100.00;101304.72;5092161;28;20115;-67
2024/01/14 04:21:05;;;;;;;56.73;25.10;;;;;;;1.00;100.00;101305.50;5091957;28;20042;-67
2024/01/14 04:23:33;;;;;;;59.10;27.53;;;;;;;0.87;100.00;101289.13;5092963;28;20550;-67
2024/01/14 04:26:04;;;;;;;60.70;25.27;;;;;;;1.05;100.00;101290.56;5092718;28;20016;-67
2024/01/14 04:28:29;;;;;;;59.27;25.73;;;;;;;0.90;100.00;101303.03;5091533;28;20036;-67
2024/01/14 04:30:55;;;;;;;53.07;23.63;;;;;;;0.96;100.00;101309.91;5091896;28;20073;-67
2024/01/14 04:33:22;;;;;;;56.77;22.27;;;;;;;0.88;100.00;101306.56;5091749;28;20016;-67
2024/01/14 04:35:48;;;;;;;55.10;23.97;;;;;;;0.82;100.00;101288.31;5092892;28;20119;-67
2024/01/14 04:38:13;;;;;;;46.10;20.70;;;;;;;0.93;100.00;101304.72;5092979;28;20114;-67
2024/01/14 04:40:40;;;;;;;51.97;24.23;;;;;;;0.76;100.00;101277.94;5092646;28;20036;-67
2024/01/14 04:43:06;;;;;;;42.40;19.50;;;;;;;0.97;100.00;101297.69;5091703;28;20384;-67
2024/01/14 04:45:31;;;;;;;57.20;23.97;;;;;;;0.86;100.00;101295.25;5091532;28;20024;-67
2024/01/14 04:47:59;;;;;;;54.13;23.10;;;;;;;0.93;100.00;101290.78;5092568;28;20471;-67
2024/01/14 04:50:24;;;;;;;49.47;23.27;;;;;;;0.84;100.00;101284.78;5093140;28;20024;-67
2024/01/14 04:52:50;;;;;;;46.63;22.67;;;;;;;0.87;100.00;101292.59;5089875;28;20093;-67
2024/01/14 04:55:15;;;;;;;53.27;23.47;;;;;;;0.92;100.00;101273.34;5092019;28;20492;-67
2024/01/14 04:57:40;;;;;;;42.83;22.33;;;;;;;0.90;100.00;101281.22;5092865;28;20051;-67
2024/01/14 05:00:07;;;;;;;43.10;19.27;;;;;;;0.81;100.00;101258.66;5091498;28;20012;-67
2024/01/14 05:02:32;;;;;;;46.43;20.77;;;;;;;0.86;100.00;101254.22;5091383;28;20055;-67
2024/01/14 05:04:58;;;;;;;32.20;17.63;;;;;;;0.95;100.00;101274.16;5092598;28;20439;-67
2024/01/14 05:07:23;;;;;;;43.23;20.73;;;;;;;0.84;100.00;101271.72;5091761;28;20024;-67
2024/01/14 05:09:48;;;;;;;36.53;17.67;;;;;;;0.88;100.00;101267.28;5090888;28;20111;-67
2024/01/14 05:12:14;;;;;;;47.97;21.93;;;;;;;0.81;100.00;101268.28;5092189;28;20026;-67
2024/01/14 05:14:39;;;;;;;37.40;17.93;;;;;;;0.78;100.00;101256.09;5091020;28;20060;-67
2024/01/14 05:20:57;;;;;;;40.93;18.60;;;;;;;0.81;100.00;101249.94;5089940;28;20047;-67
2024/01/14 05:23:30;;;;;;;46.97;20.77;;;;;;;0.75;100.00;101255.28;5046113;23;20077;-67
2024/01/14 05:25:57;;;;;;;39.27;19.20;;;;;;;0.88;100.00;101247.22;5051738;28;20719;-67
2024/01/14 05:28:23;;;;;;;42.50;20.37;;;;;;;0.75;100.00;101229.97;5053261;28;20545;-67
2024/01/14 05:30:48;;;;;;;46.97;20.40;;;;;;;0.74;100.00;101243.97;5051888;28;20028;-67
2024/01/14 05:33:14;;;;;;;45.50;23.07;;;;;;;0.80;100.00;101243.00;5038915;28;20056;-67
2024/01/14 05:35:39;;;;;;;42.23;18.77;;;;;;;0.73;100.00;101238.75;5038411;28;20026;-67
2024/01/14 05:38:07;;;;;;;49.90;23.07;;;;;;;0.64;100.00;101226.66;5047367;28;20487;-67
2024/01/14 05:40:33;;;;;;;50.03;22.53;;;;;;;0.65;100.00;101231.03;5042905;28;20021;-67
2024/01/14 05:42:58;;;;;;;34.67;18.60;;;;;;;0.63;100.00;101225.81;5053318;28;20025;-67
2024/01/14 05:45:23;;;;;;;48.20;20.23;;;;;;;0.67;100.00;101222.22;5051936;28;20016;-67
2024/01/14 05:47:49;;;;;;;58.83;24.17;;;;;;;0.72;100.00;101223.94;5050484;28;20025;-67
2024/01/14 05:50:14;;;;;;;51.83;23.50;;;;;;;0.65;100.00;101224.03;5045116;28;20052;-67
2024/01/14 05:52:40;;;;;;;43.60;20.93;;;;;;;0.67;100.00;101227.47;5049709;28;20032;-67
2024/01/14 05:55:05;;;;;;;47.50;23.03;;;;;;;0.79;100.00;101225.53;5073292;28;20029;-67
2024/01/14 05:57:31;;;;;;;54.73;23.20;;;;;;;0.82;100.00;101228.97;5052306;28;20021;-67
2024/01/14 05:59:56;;;;;;;49.43;22.10;;;;;;;0.71;100.00;101219.56;5053121;28;20039;-67
2024/01/14 06:02:21;;;;;;;53.37;23.30;;;;;;;0.64;100.00;101211.81;5075834;28;20037;-67
2024/01/14 06:04:47;;;;;;;57.03;23.00;;;;;;;0.60;100.00;101207.53;5040752;28;20392;-67
2024/01/14 06:07:12;;;;;;;52.10;23.07;;;;;;;0.64;100.00;101198.72;5042944;28;20082;-67
2024/01/14 06:09:38;;;;;;;52.97;22.60;;;;;;;0.60;100.00;101194.44;5059398;28;20447;-67
2024/01/14 06:12:03;;;;;;;53.43;25.10;;;;;;;0.57;100.00;101184.03;5050079;28;20035;-67
2024/01/14 06:14:28;;;;;;;46.47;21.97;;;;;;;0.66;100.00;101196.09;5050627;28;20052;-67
2024/01/14 06:16:54;;;;;;;49.90;22.50;;;;;;;0.63;100.00;101191.78;5032629;28;20113;-67
2024/01/14 06:19:19;;;;;;;54.13;22.57;;;;;;;0.64;100.00;101193.50;5032501;28;20036;-67
2024/01/14 06:21:45;;;;;;;56.27;22.87;;;;;;;0.65;100.00;101192.63;5033485;28;20051;-67
2024/01/14 06:24:13;;;;;;;46.73;20.27;;;;;;;0.56;100.00;101178.81;5042864;28;20384;-67
2024/01/14 06:26:38;;;;;;;48.17;21.47;;;;;;;0.70;100.00;101191.66;5051010;28;20426;-67
2024/01/14 06:29:03;;;;;;;46.57;21.50;;;;;;;0.68;100.00;101186.47;5045681;28;20033;-67
2024/01/14 06:31:29;;;;;;;46.03;19.57;;;;;;;0.68;100.00;101187.34;5048680;28;20112;-67
2024/01/14 06:33:54;;;;;;;35.57;16.93;;;;;;;0.56;100.00;101161.38;5033686;28;20060;-67
2024/01/14 06:36:22;;;;;;;53.03;21.10;;;;;;;0.59;100.00;101173.53;5031965;28;20013;-67
2024/01/14 06:38:47;;;;;;;41.50;19.97;;;;;;;0.50;100.00;101160.59;5038127;28;20024;-67
2024/01/14 06:41:18;;;;;;;46.73;22.63;;;;;;;0.69;100.00;101175.09;5072161;28;20542;-67
2024/01/14 06:43:43;;;;;;;51.88;22.85;;;;;;;0.58;100.00;101174.41;5034000;28;20029;-67
2024/01/14 06:46:09;;;;;;;46.00;20.23;;;;;;;0.81;100.00;101169.66;5079787;28;20067;-67
2024/01/14 06:48:34;;;;;;;41.20;19.27;;;;;;;0.66;100.00;101175.16;5049323;28;20444;-67
2024/01/14 06:51:00;;;;;;;44.17;22.67;;;;;;;0.51;100.00;101154.50;5049905;28;20071;-67
2024/01/14 06:53:26;;;;;;;35.60;17.47;;;;;;;0.66;100.00;101167.31;5033617;28;20029;-67
2024/01/14 06:55:51;;;;;;;44.20;20.10;;;;;;;0.52;100.00;101150.97;5040395;28;20028;-67
2024/01/14 06:58:17;;;;;;;50.50;21.40;;;;;;;0.52;100.00;101138.75;5032550;28;20032;-67
2024/01/14 07:00:44;;;;;;;47.17;20.20;;;;;;;0.67;100.00;101163.78;5039946;28;20037;-67
2024/01/14 07:03:11;;;;;;;47.97;20.77;;;;;;;0.65;100.00;101155.97;5043686;28;20503;-67
2024/01/14 07:05:37;;;;;;;44.77;20.10;;;;;;;0.62;100.00;101144.72;5047815;28;20029;-68
2024/01/14 07:08:04;;;;;;;48.57;19.23;;;;;;;0.59;100.00;101142.13;5051107;28;20499;-67
2024/01/14 07:10:30;;;;;;;33.77;15.93;;;;;;;0.62;100.00;101145.56;5043010;28;20433;-67
2024/01/14 07:12:55;;;;;;;43.07;23.13;;;;;;;0.74;100.00;101146.25;5043899;28;20062;-67
2024/01/14 07:15:21;;;;;;;36.03;18.87;;;;;;;0.57;100.00;101136.94;5048834;28;20388;-67
2024/01/14 07:17:46;;;;;;;59.73;23.20;;;;;;;0.43;100.00;101144.13;5076787;28;20087;-67
2024/01/14 07:20:11;;;;;;;35.73;19.40;;;;;;;0.59;100.00;101147.34;5042651;28;20065;-67
2024/01/14 07:22:37;;;;;;;48.10;22.83;;;;;;;0.50;100.00;101155.34;5079238;28;20504;-67
2024/01/14 07:25:03;;;;;;;36.00;18.73;;;;;;;0.59;100.00;101142.13;5042069;28;20542;-67
2024/01/14 07:27:28;;;;;;;54.47;22.87;;;;;;;0.54;100.00;101160.53;5084951;28;20028;-67
2024/01/14 07:29:54;;;;;;;43.70;21.23;;;;;;;0.78;100.00;101154.00;5052075;28;20484;-67
2024/01/14 07:32:21;;;;;;;41.37;18.20;;;;;;;0.55;100.00;101141.31;5038639;28;20033;-67
2024/01/14 07:34:47;;;;;;;45.87;19.03;;;;;;;0.48;100.00;101150.16;5055074;28;20527;-67
2024/01/14 07:37:12;;;;;;;49.60;22.77;;;;;;;0.50;100.00;101139.66;5036248;28;20116;-67
2024/01/14 07:39:38;;;;;;;53.10;21.73;;;;;;;0.50;100.00;101153.63;5084464;28;20446;-67
2024/01/14 07:42:04;;;;;;;54.10;20.93;;;;;;;0.51;100.00;101144.88;5048442;28;20503;-68
2024/01/14 07:44:35;;;;;;;31.30;17.43;;;;;;;0.70;100.00;101147.16;5049838;28;20024;-67
2024/01/14 07:47:00;;;;;;;;;;;;;;;0.47;100.00;101140.56;5048547;28;20033;-67
2024/01/14 07:49:25;;;;;;;45.80;20.80;;;;;;;0.70;100.00;101142.78;5053269;28;19927;-67
2024/01/14 07:51:51;;;;;;;51.00;21.63;;;;;;;0.46;100.00;101141.47;5046462;28;20366;-68
2024/01/14 07:54:16;;;;;;;44.47;19.97;;;;;;;0.55;100.00;101146.53;5041815;28;20025;-67
2024/01/14 07:56:41;;;;;;;45.13;20.40;;;;;;;0.50;100.00;101140.56;5054417;28;20025;-67
2024/01/14 07:59:07;;;;;;;38.10;17.43;;;;;;;0.43;100.00;101137.16;5042437;28;20025;-67
2024/01/14 08:01:32;;;;;;;37.60;17.20;;;;;;;0.51;100.00;101138.78;5036692;28;20373;-67
2024/01/14 08:03:57;;;;;;;42.60;19.40;;;;;;;0.50;100.00;101137.03;5053147;28;20113;-67
2024/01/14 08:06:27;;;;;;;36.07;18.13;;;;;;;0.51;100.00;101139.66;5047374;28;20483;-65
2024/01/14 08:08:52;;;;;;;41.57;19.87;;;;;;;0.45;100.00;101124.06;5050503;28;20028;-64
2024/01/14 08:11:19;;;;;;;41.07;20.87;;;;;;;0.79;100.00;101134.78;5052131;28;20188;-64
2024/01/14 08:13:45;;;;;;;32.73;17.70;;;;;;;0.71;100.00;101138.41;5043692;28;20028;-65
2024/01/14 08:16:10;;;;;;;34.00;15.00;;;;;;;0.61;100.00;101125.50;5052183;28;20419;-65
2024/01/14 08:18:35;;;;;;;36.53;17.13;;;;;;;0.54;100.00;101107.34;5042221;28;20083;-64
2024/01/14 08:21:01;;;;;;;45.43;21.07;;;;;;;0.56;100.00;101122.13;5049833;28;20060;-65
2024/01/14 08:23:28;;;;;;;39.10;19.70;;;;;;;0.59;100.00;101126.41;5050276;28;20057;-65
2024/01/14 08:25:56;;;;;;;46.47;20.13;;;;;;;0.65;100.00;101131.56;5041547;28;20022;-65
2024/01/14 08:28:24;;;;;;;29.30;16.40;;;;;;;0.70;100.00;101128.84;5049756;28;20391;-65
2024/01/14 08:30:49;;;;;;;49.30;19.70;;;;;;;0.63;100.00;101138.56;5053275;28;20104;-65
2024/01/14 08:33:14;;;;;;;44.63;20.20;;;;;;;0.57;100.00;101125.59;5042222;28;20117;-65
2024/01/14 08:35:40;;;;;;;42.80;20.30;;;;;;;0.65;100.00;101124.56;5042731;28;20242;-65
2024/01/14 08:38:05;;;;;;;45.70;20.37;;;;;;;0.70;100.00;101134.09;5053634;28;20032;-65
2024/01/14 08:40:31;;;;;;;42.60;17.90;;;;;;;0.73;100.00;101132.28;5049220;28;20111;-65
2024/01/14 08:42:56;;;;;;;45.43;20.53;;;;;;;0.53;100.00;101118.66;5052651;28;20037;-65
2024/01/14 08:45:21;;;;;;;49.23;22.13;;;;;;;0.68;100.00;101128.91;5051368;28;20021;-65
2024/01/14 08:47:47;;;;;;;33.27;17.37;;;;;;;0.68;100.00;101129.75;5050664;28;20029;-65
2024/01/14 08:50:13;;;;;;;49.90;21.37;;;;;;;0.65;100.00;101127.19;5050485;28;20032;-65
2024/01/14 08:52:41;;;;;;;49.13;20.93;;;;;;;0.71;100.00;101135.81;5048896;28;20033;-64
2024/01/14 08:55:08;;;;;;;47.47;20.53;;;;;;;0.73;100.00;101131.41;5048824;28;20040;-65
2024/01/14 08:57:34;;;;;;;44.00;20.57;;;;;;;0.73;100.00;101123.56;5053008;28;20032;-65
2024/01/14 08:59:59;;;;;;;44.67;20.53;;;;;;;0.57;100.00;101108.13;5053301;28;20020;-65
2024/01/14 09:02:25;;;;;;;46.47;19.43;;;;;;;0.65;100.00;101126.34;5044255;28;20423;-65
2024/01/14 09:04:51;;;;;;;40.90;18.50;;;;;;;0.66;100.00;101120.19;5033558;28;20026;-65
2024/01/14 09:07:16;;;;;;;41.87;18.83;;;;;;;0.71;100.00;101114.88;5034551;28;20122;-65
2024/01/14 09:09:42;;;;;;;44.30;20.67;;;;;;;0.74;100.00;101128.78;5034113;28;20476;-65
2024/01/14 09:12:10;;;;;;;32.33;15.40;;;;;;;0.74;100.00;101131.41;5040262;28;20030;-64
2024/01/14 09:14:35;;;;;;;42.67;20.87;;;;;;;0.76;100.00;101126.13;5052680;28;20487;-65
2024/01/14 09:17:00;;;;;;;40.77;18.37;;;;;;;0.73;100.00;101119.19;5051079;28;20215;-64
2024/01/14 09:19:26;;;;;;;46.50;23.90;;;;;;;1.01;100.00;101131.78;5050403;28;20053;-64
2024/01/14 09:21:51;;;;;;;43.93;18.83;;;;;;;0.76;100.00;101113.88;5052594;28;20049;-64
2024/01/14 09:24:17;;;;;;;48.47;22.70;;;;;;;0.61;100.00;101096.72;5050978;28;20033;-64
2024/01/14 09:26:42;;;;;;;39.67;19.67;;;;;;;0.65;100.00;101095.78;5048072;28;20393;-64
2024/01/14 09:29:07;;;;;;;45.77;21.20;;;;;;;0.71;100.00;101104.41;5049200;28;20036;-67
2024/01/14 09:31:33;;;;;;;59.60;25.03;;;;;;;0.72;100.00;101106.13;5049817;28;20028;-65
2024/01/14 09:33:58;;;;;;;46.03;21.40;;;;;;;0.68;100.00;101093.09;5050486;28;20032;-65
2024/01/14 09:36:26;;;;;;;52.93;24.27;;;;;;;0.63;100.00;101086.22;5047805;28;20155;-65
2024/01/14 09:38:51;;;;;;;41.30;19.73;;;;;;;0.81;100.00;101103.34;5050066;28;20444;-64
2024/01/14 09:41:53;;;;;;;55.30;23.07;;;;;;;0.80;100.00;101097.25;5050502;28;20108;-64
2024/01/14 09:44:19;;;;;;;42.67;20.07;;;;;;;0.87;100.00;101093.63;5051272;28;20029;-64
2024/01/14 09:46:47;;;;;;;45.33;21.27;;;;;;;1.04;100.00;101090.69;5047271;28;20488;-65
2024/01/14 09:49:15;;;;;;;47.20;22.77;;;;;;;0.86;100.00;101086.66;5049764;28;20017;-65
2024/01/14 09:51:41;;;;;;;33.83;16.87;;;;;;;0.79;100.00;101077.19;5049468;28;20025;-65
2024/01/14 09:54:06;;;;;;;46.23;22.37;;;;;;;0.95;100.00;101090.00;5076170;28;20036;-65
2024/01/14 09:56:33;;;;;;;41.33;20.60;;;;;;;0.82;100.00;101082.34;5047626;28;20025;-65
2024/01/14 09:59:02;;;;;;;44.63;21.20;;;;;;;0.82;100.00;101084.13;5046836;28;20536;-65
2024/01/14 10:01:33;;;;;;;49.57;25.00;;;;;;;0.94;100.00;101090.88;5044470;28;20384;-65
2024/01/14 10:04:03;;;;;;;46.73;21.73;;;;;;;0.99;100.00;101089.91;5040769;28;20025;-64
2024/01/14 10:06:29;;;;;;;38.83;20.97;;;;;;;0.76;100.00;101068.53;5041828;28;20099;-66
2024/01/14 10:08:55;;;;;;;47.90;23.53;;;;;;;0.87;100.00;101070.06;5033146;28;20112;-66
2024/01/14 10:11:21;;;;;;;29.17;15.67;;;;;;;0.93;100.00;101082.16;5044136;28;20036;-66
2024/01/14 10:13:50;;;;;;;50.63;21.63;;;;;;;0.90;100.00;101087.47;5049965;28;20025;-66
2024/01/14 10:16:16;;;;;;;41.43;19.83;;;;;;;0.98;100.00;101088.19;5050183;28;20029;-65
2024/01/14 10:18:42;;;;;;;44.73;20.33;;;;;;;1.19;100.00;101083.41;5049243;28;20031;-65
2024/01/14 10:21:09;;;;;;;51.30;22.40;;;;;;;0.94;100.00;101068.16;5076561;28;20025;-65
2024/01/14 10:23:36;;;;;;;40.70;19.90;;;;;;;0.94;100.00;101070.78;5051662;28;20055;-65
2024/01/14 10:26:01;;;;;;;44.97;20.00;;;;;;;0.97;100.00;101062.00;5039864;28;20018;-65
2024/01/14 10:28:34;;;;;;;27.47;16.67;;;;;;;1.01;100.00;101063.69;5044687;28;20432;-65
2024/01/14 10:31:03;;;;;;;50.13;21.47;;;;;;;1.01;100.00;101068.94;5051057;28;20103;-65
2024/01/14 10:33:35;;;;;;;42.60;20.52;;;;;;;0.95;100.00;101061.19;5050108;28;20035;-65
2024/01/14 10:36:07;;;;;;;38.70;20.43;;;;;;;1.14;100.00;101058.16;5050452;28;20439;-64
2024/01/14 10:38:35;;;;;;;45.07;20.10;;;;;;;0.94;100.00;101055.06;5051597;28;20024;-65
2024/01/14 10:41:00;;;;;;;28.40;15.53;;;;;;;0.92;100.00;101035.94;5048536;28;20060;-65
2024/01/14 10:43:26;;;;;;;43.03;20.63;;;;;;;0.91;100.00;101036.81;5030859;28;20056;-66
2024/01/14 10:45:52;;;;;;;49.40;21.47;;;;;;;0.98;100.00;101046.28;5046487;28;20053;-65
2024/01/14 10:48:28;;;;;;;40.13;19.13;;;;;;;0.95;100.00;101038.50;5046175;28;20082;-65
2024/01/14 10:51:01;;;;;;;35.85;18.58;;;;;;;1.06;100.00;101039.13;5048400;28;20040;-65
2024/01/14 10:53:53;;;;;;;45.77;21.37;;;;;;;1.09;100.00;101041.69;5048784;28;20537;-65
2024/01/14 10:56:23;;;;;;;52.63;22.13;;;;;;;1.00;100.00;101035.75;5038731;28;20363;-65
2024/01/14 10:58:53;;;;;;;42.73;17.60;;;;;;;0.75;100.00;101004.84;5048598;28;20129;-65
2024/01/14 11:01:20;;;;;;;47.55;20.65;;;;;;;0.79;100.00;101010.88;5045065;28;20096;-65
2024/01/14 11:03:47;;;;;;;42.13;20.00;;;;;;;0.86;100.00;101008.13;5028023;28;20078;-66
2024/01/14 11:06:12;;;;;;;41.97;19.80;;;;;;;0.89;100.00;101009.81;5047914;28;20078;-65
2024/01/14 11:08:39;;;;;;;43.53;21.20;;;;;;;0.68;100.00;100987.56;5048265;28;20033;-65